sensor_id;sensor_type;location;lat;lon;timestamp;pressure;altitude;pressure_sealevel;temperature;humidity
63399;BME280;49533;-34.520;150.798;2023-05-08T00:00:38;100392.63;;;15.40;38.05
63399;BME280;49533;-34.520;150.798;2023-05-08T00:03:06;100407.44;;;15.52;37.99
63399;BME280;49533;-34.520;150.798;2023-05-08T00:05:33;100382.94;;;15.55;38.16
63399;BME280;49533;-34.520;150.798;2023-05-08T00:08:01;100395.59;;;15.60;38.00
63399;BME280;49533;-34.520;150.798;2023-05-08T00:10:28;100324.19;;;15.16;38.00
63399;BME280;49533;-34.520;150.798;2023-05-08T00:12:56;100399.22;;;15.64;38.13
63399;BME280;49533;-34.520;150.798;2023-05-08T00:15:23;100302.44;;;15.07;38.18
63399;BME280;49533;-34.520;150.798;2023-05-08T00:17:50;100392.72;;;15.69;38.13
63399;BME280;49533;-34.520;150.798;2023-05-08T00:20:17;100321.59;;;15.19;38.28
63399;BME280;49533;-34.520;150.798;2023-05-08T00:22:44;100335.38;;;15.35;38.18
63399;BME280;49533;-34.520;150.798;2023-05-08T00:25:12;100370.34;;;15.54;38.18
63399;BME280;49533;-34.520;150.798;2023-05-08T00:27:39;100406.75;;;15.67;37.98
63399;BME280;49533;-34.520;150.798;2023-05-08T00:30:07;100403.69;;;15.69;38.03
63399;BME280;49533;-34.520;150.798;2023-05-08T00:32:35;100315.19;;;15.15;37.90
63399;BME280;49533;-34.520;150.798;2023-05-08T00:35:03;100399.03;;;15.69;37.76
63399;BME280;49533;-34.520;150.798;2023-05-08T00:37:30;100413.03;;;15.68;37.92
63399;BME280;49533;-34.520;150.798;2023-05-08T00:39:57;100361.50;;;15.45;37.70
63399;BME280;49533;-34.520;150.798;2023-05-08T00:42:24;100336.53;;;15.22;37.54
63399;BME280;49533;-34.520;150.798;2023-05-08T00:44:51;100291.38;;;14.91;37.77
63399;BME280;49533;-34.520;150.798;2023-05-08T00:47:19;100406.41;;;15.56;37.89
63399;BME280;49533;-34.520;150.798;2023-05-08T00:49:48;100396.38;;;15.48;37.97
63399;BME280;49533;-34.520;150.798;2023-05-08T00:52:16;100414.31;;;15.70;37.90
63399;BME280;49533;-34.520;150.798;2023-05-08T00:54:44;100383.63;;;15.40;37.45
63399;BME280;49533;-34.520;150.798;2023-05-08T00:57:14;100427.19;;;15.70;37.54
63399;BME280;49533;-34.520;150.798;2023-05-08T00:59:42;100400.47;;;15.54;37.64
63399;BME280;49533;-34.520;150.798;2023-05-08T01:02:11;100400.94;;;15.69;37.51
63399;BME280;49533;-34.520;150.798;2023-05-08T01:04:38;100419.66;;;15.66;37.61
63399;BME280;49533;-34.520;150.798;2023-05-08T01:07:07;100435.75;;;15.68;37.79
63399;BME280;49533;-34.520;150.798;2023-05-08T01:09:34;100416.69;;;15.59;37.61
63399;BME280;49533;-34.520;150.798;2023-05-08T01:12:17;100311.19;;;15.00;37.79
63399;BME280;49533;-34.520;150.798;2023-05-08T01:15:10;100434.06;;;15.76;37.47
63399;BME280;49533;-34.520;150.798;2023-05-08T01:17:55;100394.56;;;15.52;37.51
63399;BME280;49533;-34.520;150.798;2023-05-08T01:20:44;100442.28;;;15.76;37.27
63399;BME280;49533;-34.520;150.798;2023-05-08T01:23:51;100451.19;;;15.73;37.14
63399;BME280;49533;-34.520;150.798;2023-05-08T01:26:41;100431.66;;;15.50;37.20
63399;BME280;49533;-34.520;150.798;2023-05-08T01:29:38;100453.56;;;15.74;37.01
63399;BME280;49533;-34.520;150.798;2023-05-08T01:32:24;100396.38;;;15.36;37.26
63399;BME280;49533;-34.520;150.798;2023-05-08T01:35:13;100416.00;;;15.38;37.18
63399;BME280;49533;-34.520;150.798;2023-05-08T01:37:54;100457.22;;;15.78;37.33
63399;BME280;49533;-34.520;150.798;2023-05-08T01:40:39;100457.69;;;15.80;37.46
63399;BME280;49533;-34.520;150.798;2023-05-08T01:43:29;100453.00;;;15.81;37.29
63399;BME280;49533;-34.520;150.798;2023-05-08T01:46:04;100317.34;;;14.97;37.23
63399;BME280;49533;-34.520;150.798;2023-05-08T01:48:33;100431.56;;;15.71;37.15
63399;BME280;49533;-34.520;150.798;2023-05-08T01:51:04;100433.81;;;15.81;36.72
63399;BME280;49533;-34.520;150.798;2023-05-08T01:53:38;100384.75;;;15.39;36.51
63399;BME280;49533;-34.520;150.798;2023-05-08T01:56:16;100434.75;;;15.73;36.72
63399;BME280;49533;-34.520;150.798;2023-05-08T01:58:45;100352.47;;;15.32;36.99
63399;BME280;49533;-34.520;150.798;2023-05-08T02:01:14;100413.94;;;15.59;37.06
63399;BME280;49533;-34.520;150.798;2023-05-08T02:03:46;100453.47;;;15.95;36.17
63399;BME280;49533;-34.520;150.798;2023-05-08T02:06:16;100330.03;;;15.14;36.08
63399;BME280;49533;-34.520;150.798;2023-05-08T02:08:47;100439.53;;;15.88;35.73
63399;BME280;49533;-34.520;150.798;2023-05-08T02:11:16;100463.72;;;15.98;35.41
63399;BME280;49533;-34.520;150.798;2023-05-08T02:13:46;100483.22;;;15.97;35.80
63399;BME280;49533;-34.520;150.798;2023-05-08T02:16:14;100397.97;;;15.49;35.39
63399;BME280;49533;-34.520;150.798;2023-05-08T02:18:46;100475.38;;;15.95;35.65
63399;BME280;49533;-34.520;150.798;2023-05-08T02:21:14;100481.28;;;15.97;35.28
63399;BME280;49533;-34.520;150.798;2023-05-08T02:23:44;100296.97;;;14.70;35.26
63399;BME280;49533;-34.520;150.798;2023-05-08T02:26:14;100478.78;;;15.92;35.32
63399;BME280;49533;-34.520;150.798;2023-05-08T02:28:42;100467.41;;;15.78;35.11
63399;BME280;49533;-34.520;150.798;2023-05-08T02:31:11;100495.59;;;15.91;35.03
63399;BME280;49533;-34.520;150.798;2023-05-08T02:33:41;100487.22;;;15.87;34.72
63399;BME280;49533;-34.520;150.798;2023-05-08T02:36:12;100509.59;;;15.89;35.26
63399;BME280;49533;-34.520;150.798;2023-05-08T02:38:40;100428.13;;;15.37;34.85
63399;BME280;49533;-34.520;150.798;2023-05-08T02:41:10;100495.44;;;15.87;34.94
63399;BME280;49533;-34.520;150.798;2023-05-08T02:43:40;100492.72;;;15.87;35.03
63399;BME280;49533;-34.520;150.798;2023-05-08T02:46:15;100492.28;;;15.85;34.97
63399;BME280;49533;-34.520;150.798;2023-05-08T02:48:59;100467.63;;;15.73;34.42
63399;BME280;49533;-34.520;150.798;2023-05-08T02:54:29;100481.19;;;15.81;34.61
63399;BME280;49533;-34.520;150.798;2023-05-08T02:59:45;100517.59;;;15.82;34.46
63399;BME280;49533;-34.520;150.798;2023-05-08T03:02:31;100514.63;;;15.87;34.10
63399;BME280;49533;-34.520;150.798;2023-05-08T03:05:10;100449.91;;;15.58;34.32
63399;BME280;49533;-34.520;150.798;2023-05-08T03:07:40;100325.63;;;14.64;34.53
63399;BME280;49533;-34.520;150.798;2023-05-08T03:10:11;100360.81;;;14.99;34.36
63399;BME280;49533;-34.520;150.798;2023-05-08T03:12:42;100491.47;;;15.84;34.44
63399;BME280;49533;-34.520;150.798;2023-05-08T03:15:23;100513.84;;;15.86;34.11
63399;BME280;49533;-34.520;150.798;2023-05-08T03:17:55;100344.03;;;15.00;34.17
63399;BME280;49533;-34.520;150.798;2023-05-08T03:20:25;100455.72;;;15.69;34.17
63399;BME280;49533;-34.520;150.798;2023-05-08T03:22:57;100487.59;;;15.85;34.13
63399;BME280;49533;-34.520;150.798;2023-05-08T03:25:26;100421.59;;;15.41;34.37
63399;BME280;49533;-34.520;150.798;2023-05-08T03:27:56;100262.94;;;14.34;34.00
63399;BME280;49533;-34.520;150.798;2023-05-08T03:30:24;100510.19;;;15.82;34.16
63399;BME280;49533;-34.520;150.798;2023-05-08T03:32:53;100497.28;;;15.83;33.33
63399;BME280;49533;-34.520;150.798;2023-05-08T03:35:24;100479.25;;;15.70;33.80
63399;BME280;49533;-34.520;150.798;2023-05-08T03:37:53;100467.59;;;15.60;33.79
63399;BME280;49533;-34.520;150.798;2023-05-08T03:40:21;100499.13;;;15.79;33.88
63399;BME280;49533;-34.520;150.798;2023-05-08T03:42:49;100495.91;;;15.77;34.07
63399;BME280;49533;-34.520;150.798;2023-05-08T03:45:17;100450.22;;;15.44;33.92
63399;BME280;49533;-34.520;150.798;2023-05-08T03:47:46;100397.75;;;15.17;33.55
63399;BME280;49533;-34.520;150.798;2023-05-08T03:50:14;100483.78;;;15.53;33.54
63399;BME280;49533;-34.520;150.798;2023-05-08T03:52:42;100489.28;;;15.65;33.76
63399;BME280;49533;-34.520;150.798;2023-05-08T03:55:09;100450.91;;;15.53;33.94
63399;BME280;49533;-34.520;150.798;2023-05-08T03:57:49;100474.53;;;15.58;33.99
63399;BME280;49533;-34.520;150.798;2023-05-08T04:00:36;100486.91;;;15.76;34.19
63399;BME280;49533;-34.520;150.798;2023-05-08T04:03:38;100476.38;;;15.66;33.90
63399;BME280;49533;-34.520;150.798;2023-05-08T04:06:24;100439.72;;;15.46;33.60
63399;BME280;49533;-34.520;150.798;2023-05-08T04:09:12;100492.28;;;15.73;33.96
63399;BME280;49533;-34.520;150.798;2023-05-08T04:11:47;100490.84;;;15.66;34.00
63399;BME280;49533;-34.520;150.798;2023-05-08T04:14:20;100518.28;;;15.79;34.27
63399;BME280;49533;-34.520;150.798;2023-05-08T04:16:52;100490.84;;;15.66;34.46
63399;BME280;49533;-34.520;150.798;2023-05-08T04:19:25;100512.94;;;15.82;34.13
63399;BME280;49533;-34.520;150.798;2023-05-08T04:21:57;100518.06;;;15.84;34.17
63399;BME280;49533;-34.520;150.798;2023-05-08T04:24:27;100444.97;;;15.27;34.21
63399;BME280;49533;-34.520;150.798;2023-05-08T04:26:55;100427.19;;;15.33;34.26
63399;BME280;49533;-34.520;150.798;2023-05-08T04:29:23;100457.09;;;15.62;34.17
63399;BME280;49533;-34.520;150.798;2023-05-08T04:31:51;100500.13;;;15.86;34.33
63399;BME280;49533;-34.520;150.798;2023-05-08T04:34:19;100475.94;;;15.76;33.92
63399;BME280;49533;-34.520;150.798;2023-05-08T04:36:47;100477.09;;;15.75;33.99
63399;BME280;49533;-34.520;150.798;2023-05-08T04:39:14;100485.19;;;15.72;34.08
63399;BME280;49533;-34.520;150.798;2023-05-08T04:41:42;100511.88;;;15.87;34.28
63399;BME280;49533;-34.520;150.798;2023-05-08T04:44:09;100471.59;;;15.63;34.50
63399;BME280;49533;-34.520;150.798;2023-05-08T04:46:36;100388.19;;;15.11;34.26
63399;BME280;49533;-34.520;150.798;2023-05-08T04:49:03;100509.97;;;15.88;34.14
63399;BME280;49533;-34.520;150.798;2023-05-08T04:51:31;100489.72;;;15.68;34.06
63399;BME280;49533;-34.520;150.798;2023-05-08T04:53:58;100512.03;;;15.91;33.69
63399;BME280;49533;-34.520;150.798;2023-05-08T04:56:25;100446.59;;;15.40;33.97
63399;BME280;49533;-34.520;150.798;2023-05-08T04:58:52;100523.31;;;15.89;34.04
63399;BME280;49533;-34.520;150.798;2023-05-08T05:01:19;100524.94;;;15.90;33.61
63399;BME280;49533;-34.520;150.798;2023-05-08T05:03:47;100523.44;;;15.80;33.51
63399;BME280;49533;-34.520;150.798;2023-05-08T05:06:14;100541.13;;;15.95;33.61
63399;BME280;49533;-34.520;150.798;2023-05-08T05:08:41;100554.47;;;15.97;33.59
63399;BME280;49533;-34.520;150.798;2023-05-08T05:11:08;100426.81;;;15.10;33.92
63399;BME280;49533;-34.520;150.798;2023-05-08T05:13:36;100562.59;;;15.93;33.81
63399;BME280;49533;-34.520;150.798;2023-05-08T05:16:03;100535.19;;;15.93;33.92
63399;BME280;49533;-34.520;150.798;2023-05-08T05:18:30;100543.88;;;15.95;34.05
63399;BME280;49533;-34.520;150.798;2023-05-08T05:20:58;100509.84;;;15.72;34.14
63399;BME280;49533;-34.520;150.798;2023-05-08T05:23:25;100493.81;;;15.61;34.15
63399;BME280;49533;-34.520;150.798;2023-05-08T05:25:52;100554.47;;;15.97;34.09
63399;BME280;49533;-34.520;150.798;2023-05-08T05:28:19;100490.97;;;15.58;33.94
63399;BME280;49533;-34.520;150.798;2023-05-08T05:30:47;100550.63;;;15.98;33.79
63399;BME280;49533;-34.520;150.798;2023-05-08T05:33:14;100545.22;;;15.89;34.87
63399;BME280;49533;-34.520;150.798;2023-05-08T05:35:41;100558.00;;;15.97;34.65
63399;BME280;49533;-34.520;150.798;2023-05-08T05:38:09;100518.94;;;15.63;34.79
63399;BME280;49533;-34.520;150.798;2023-05-08T05:40:37;100571.28;;;15.95;34.86
63399;BME280;49533;-34.520;150.798;2023-05-08T05:43:04;100547.63;;;15.91;34.87
63399;BME280;49533;-34.520;150.798;2023-05-08T05:45:32;100522.50;;;15.76;34.93
63399;BME280;49533;-34.520;150.798;2023-05-08T05:47:59;100511.19;;;15.65;35.23
63399;BME280;49533;-34.520;150.798;2023-05-08T05:50:26;100577.19;;;16.09;35.25
63399;BME280;49533;-34.520;150.798;2023-05-08T05:52:54;100577.34;;;16.13;35.33
63399;BME280;49533;-34.520;150.798;2023-05-08T05:55:21;100583.25;;;16.15;35.36
63399;BME280;49533;-34.520;150.798;2023-05-08T05:57:48;100543.19;;;15.86;35.66
63399;BME280;49533;-34.520;150.798;2023-05-08T06:00:16;100579.84;;;16.18;35.47
63399;BME280;49533;-34.520;150.798;2023-05-08T06:02:43;100470.53;;;15.43;35.66
63399;BME280;49533;-34.520;150.798;2023-05-08T06:05:10;100565.53;;;16.13;35.87
63399;BME280;49533;-34.520;150.798;2023-05-08T06:07:38;100587.47;;;16.25;35.85
63399;BME280;49533;-34.520;150.798;2023-05-08T06:10:05;100599.00;;;16.30;36.12
63399;BME280;49533;-34.520;150.798;2023-05-08T06:12:33;100595.94;;;16.32;36.04
63399;BME280;49533;-34.520;150.798;2023-05-08T06:15:01;100583.94;;;16.24;36.26
63399;BME280;49533;-34.520;150.798;2023-05-08T06:17:28;100604.38;;;16.39;36.15
63399;BME280;49533;-34.520;150.798;2023-05-08T06:19:55;100592.63;;;16.39;36.22
63399;BME280;49533;-34.520;150.798;2023-05-08T06:22:23;100600.94;;;16.42;36.44
63399;BME280;49533;-34.520;150.798;2023-05-08T06:24:51;100595.94;;;16.32;36.40
63399;BME280;49533;-34.520;150.798;2023-05-08T06:27:19;100595.59;;;16.34;36.48
63399;BME280;49533;-34.520;150.798;2023-05-08T06:29:48;100543.06;;;16.07;36.51
63399;BME280;49533;-34.520;150.798;2023-05-08T06:32:19;100572.97;;;16.24;36.57
63399;BME280;49533;-34.520;150.798;2023-05-08T06:34:46;100611.44;;;16.52;36.61
63399;BME280;49533;-34.520;150.798;2023-05-08T06:37:13;100552.31;;;16.15;36.61
63399;BME280;49533;-34.520;150.798;2023-05-08T06:39:41;100614.53;;;16.51;36.61
63399;BME280;49533;-34.520;150.798;2023-05-08T06:42:09;100529.03;;;15.96;36.84
63399;BME280;49533;-34.520;150.798;2023-05-08T06:44:37;100610.19;;;16.50;36.73
63399;BME280;49533;-34.520;150.798;2023-05-08T06:47:05;100624.47;;;16.56;36.95
63399;BME280;49533;-34.520;150.798;2023-05-08T06:49:35;100620.59;;;16.57;36.72
63399;BME280;49533;-34.520;150.798;2023-05-08T06:52:02;100584.63;;;16.34;36.85
63399;BME280;49533;-34.520;150.798;2023-05-08T06:54:29;100610.75;;;16.56;36.88
63399;BME280;49533;-34.520;150.798;2023-05-08T06:56:57;100622.09;;;16.54;37.03
63399;BME280;49533;-34.520;150.798;2023-05-08T06:59:24;100615.44;;;16.55;37.03
63399;BME280;49533;-34.520;150.798;2023-05-08T07:01:51;100563.50;;;16.22;37.09
63399;BME280;49533;-34.520;150.798;2023-05-08T07:04:18;100496.50;;;15.82;37.26
63399;BME280;49533;-34.520;150.798;2023-05-08T07:06:45;100560.28;;;16.20;37.18
63399;BME280;49533;-34.520;150.798;2023-05-08T07:09:12;100576.28;;;16.30;37.27
63399;BME280;49533;-34.520;150.798;2023-05-08T07:11:40;100618.88;;;16.52;37.36
63399;BME280;49533;-34.520;150.798;2023-05-08T07:14:07;100542.16;;;16.03;37.37
63399;BME280;49533;-34.520;150.798;2023-05-08T07:16:35;100538.50;;;15.99;37.44
63399;BME280;49533;-34.520;150.798;2023-05-08T07:19:03;100568.06;;;16.18;37.20
63399;BME280;49533;-34.520;150.798;2023-05-08T07:21:30;100611.91;;;16.30;37.24
63399;BME280;49533;-34.520;150.798;2023-05-08T07:23:57;100641.72;;;16.56;37.35
63399;BME280;49533;-34.520;150.798;2023-05-08T07:26:24;100601.41;;;16.32;37.34
63399;BME280;49533;-34.520;150.798;2023-05-08T07:28:51;100638.97;;;16.56;37.43
63399;BME280;49533;-34.520;150.798;2023-05-08T07:31:20;100566.69;;;15.99;37.28
63399;BME280;49533;-34.520;150.798;2023-05-08T07:33:47;100657.84;;;16.58;37.56
63399;BME280;49533;-34.520;150.798;2023-05-08T07:36:14;100603.25;;;16.16;37.36
63399;BME280;49533;-34.520;150.798;2023-05-08T07:38:41;100590.22;;;16.13;37.21
63399;BME280;49533;-34.520;150.798;2023-05-08T07:41:09;100665.75;;;16.59;37.29
63399;BME280;49533;-34.520;150.798;2023-05-08T07:43:36;100671.66;;;16.61;37.24
63399;BME280;49533;-34.520;150.798;2023-05-08T07:46:05;100648.50;;;16.46;37.39
63399;BME280;49533;-34.520;150.798;2023-05-08T07:48:32;100635.81;;;16.29;37.47
63399;BME280;49533;-34.520;150.798;2023-05-08T07:50:59;100673.75;;;16.52;37.37
63399;BME280;49533;-34.520;150.798;2023-05-08T07:53:26;100671.31;;;16.63;37.39
63399;BME280;49533;-34.520;150.798;2023-05-08T07:55:54;100677.97;;;16.62;37.52
63399;BME280;49533;-34.520;150.798;2023-05-08T07:58:21;100681.84;;;16.61;37.67
63399;BME280;49533;-34.520;150.798;2023-05-08T08:00:48;100693.16;;;16.59;37.61
63399;BME280;49533;-34.520;150.798;2023-05-08T08:03:15;100640.34;;;16.25;37.46
63399;BME280;49533;-34.520;150.798;2023-05-08T08:05:42;100613.28;;;16.12;37.45
63399;BME280;49533;-34.520;150.798;2023-05-08T08:08:09;100690.44;;;16.59;37.41
63399;BME280;49533;-34.520;150.798;2023-05-08T08:10:37;100635.94;;;16.21;37.48
63399;BME280;49533;-34.520;150.798;2023-05-08T08:13:05;100660.34;;;16.38;37.71
63399;BME280;49533;-34.520;150.798;2023-05-08T08:15:32;100677.97;;;16.49;37.57
63399;BME280;49533;-34.520;150.798;2023-05-08T08:17:59;100706.53;;;16.61;37.59
63399;BME280;49533;-34.520;150.798;2023-05-08T08:20:26;100722.97;;;16.61;37.45
63399;BME280;49533;-34.520;150.798;2023-05-08T08:22:54;100600.25;;;15.84;37.75
63399;BME280;49533;-34.520;150.798;2023-05-08T08:25:21;100707.69;;;16.60;37.77
63399;BME280;49533;-34.520;150.798;2023-05-08T08:27:48;100712.00;;;16.61;37.76
63399;BME280;49533;-34.520;150.798;2023-05-08T08:30:15;100634.19;;;16.04;37.55
63399;BME280;49533;-34.520;150.798;2023-05-08T08:32:42;100726.09;;;16.59;37.48
63399;BME280;49533;-34.520;150.798;2023-05-08T08:35:10;100731.22;;;16.61;37.38
63399;BME280;49533;-34.520;150.798;2023-05-08T08:37:37;100736.22;;;16.59;37.24
63399;BME280;49533;-34.520;150.798;2023-05-08T08:40:04;100701.63;;;16.42;37.71
63399;BME280;49533;-34.520;150.798;2023-05-08T08:42:33;100674.41;;;16.24;37.34
63399;BME280;49533;-34.520;150.798;2023-05-08T08:45:00;100744.03;;;16.57;37.36
63399;BME280;49533;-34.520;150.798;2023-05-08T08:47:33;100747.09;;;16.55;37.64
63399;BME280;49533;-34.520;150.798;2023-05-08T08:50:04;100740.81;;;16.55;37.44
63399;BME280;49533;-34.520;150.798;2023-05-08T08:52:46;100754.06;;;16.52;37.60
63399;BME280;49533;-34.520;150.798;2023-05-08T08:55:17;100759.88;;;16.51;37.37
63399;BME280;49533;-34.520;150.798;2023-05-08T08:58:06;100669.78;;;15.92;37.68
63399;BME280;49533;-34.520;150.798;2023-05-08T09:00:39;100750.41;;;16.48;37.61
63399;BME280;49533;-34.520;150.798;2023-05-08T09:03:07;100613.41;;;15.57;37.64
63399;BME280;49533;-34.520;150.798;2023-05-08T09:05:35;100754.28;;;16.47;37.36
63399;BME280;49533;-34.520;150.798;2023-05-08T09:08:02;100718.50;;;16.19;37.46
63399;BME280;49533;-34.520;150.798;2023-05-08T09:10:30;100754.75;;;16.49;37.41
63399;BME280;49533;-34.520;150.798;2023-05-08T09:12:57;100651.84;;;15.82;37.57
63399;BME280;49533;-34.520;150.798;2023-05-08T09:15:25;100762.41;;;16.44;37.46
63399;BME280;49533;-34.520;150.798;2023-05-08T09:17:52;100769.81;;;16.43;37.31
63399;BME280;49533;-34.520;150.798;2023-05-08T09:20:20;100711.84;;;16.08;37.28
63399;BME280;49533;-34.520;150.798;2023-05-08T09:22:48;100728.88;;;16.14;37.47
63399;BME280;49533;-34.520;150.798;2023-05-08T09:25:15;100747.28;;;16.13;37.51
63399;BME280;49533;-34.520;150.798;2023-05-08T09:27:44;100776.00;;;16.40;37.43
63399;BME280;49533;-34.520;150.798;2023-05-08T09:30:12;100729.09;;;16.08;37.47
63399;BME280;49533;-34.520;150.798;2023-05-08T09:32:41;100707.69;;;15.90;37.42
63399;BME280;49533;-34.520;150.798;2023-05-08T09:35:10;100775.59;;;16.17;37.59
63399;BME280;49533;-34.520;150.798;2023-05-08T09:37:39;100710.56;;;15.93;37.47
63399;BME280;49533;-34.520;150.798;2023-05-08T09:40:19;100781.38;;;16.37;37.38
63399;BME280;49533;-34.520;150.798;2023-05-08T09:42:48;100786.38;;;16.35;37.30
63399;BME280;49533;-34.520;150.798;2023-05-08T09:45:28;100784.78;;;16.34;37.60
63399;BME280;49533;-34.520;150.798;2023-05-08T09:47:56;100740.97;;;16.00;37.42
63399;BME280;49533;-34.520;150.798;2023-05-08T09:50:24;100774.13;;;16.20;37.48
63399;BME280;49533;-34.520;150.798;2023-05-08T09:52:51;100737.50;;;15.91;37.26
63399;BME280;49533;-34.520;150.798;2023-05-08T09:55:18;100751.44;;;15.98;37.52
63399;BME280;49533;-34.520;150.798;2023-05-08T09:57:55;100802.72;;;16.31;37.63
63399;BME280;49533;-34.520;150.798;2023-05-08T10:00:24;100761.06;;;16.04;37.45
63399;BME280;49533;-34.520;150.798;2023-05-08T10:03:00;100760.72;;;16.06;37.61
63399;BME280;49533;-34.520;150.798;2023-05-08T10:05:30;100788.97;;;16.19;37.50
63399;BME280;49533;-34.520;150.798;2023-05-08T10:07:58;100802.25;;;16.29;37.68
63399;BME280;49533;-34.520;150.798;2023-05-08T10:10:43;100795.78;;;16.13;37.60
63399;BME280;49533;-34.520;150.798;2023-05-08T10:13:10;100726.63;;;15.61;37.71
63399;BME280;49533;-34.520;150.798;2023-05-08T10:15:40;100819.25;;;16.22;37.58
63399;BME280;49533;-34.520;150.798;2023-05-08T10:18:08;100815.69;;;16.22;37.60
63399;BME280;49533;-34.520;150.798;2023-05-08T10:20:41;100823.94;;;16.22;37.54
63399;BME280;49533;-34.520;150.798;2023-05-08T10:23:14;100828.94;;;16.20;37.51
63399;BME280;49533;-34.520;150.798;2023-05-08T10:25:46;100821.88;;;16.19;37.61
63399;BME280;49533;-34.520;150.798;2023-05-08T10:28:23;100829.75;;;16.20;37.92
63399;BME280;49533;-34.520;150.798;2023-05-08T10:30:58;100740.31;;;15.61;37.76
63399;BME280;49533;-34.520;150.798;2023-05-08T10:33:30;100817.41;;;16.14;37.66
63399;BME280;49533;-34.520;150.798;2023-05-08T10:35:58;100828.34;;;16.14;37.87
63399;BME280;49533;-34.520;150.798;2023-05-08T10:38:27;100809.47;;;16.00;37.55
63399;BME280;49533;-34.520;150.798;2023-05-08T10:40:59;100811.53;;;16.03;37.62
63399;BME280;49533;-34.520;150.798;2023-05-08T10:43:28;100807.53;;;16.01;37.90
63399;BME280;49533;-34.520;150.798;2023-05-08T10:45:58;100824.81;;;16.14;37.62
63399;BME280;49533;-34.520;150.798;2023-05-08T10:48:38;100727.03;;;15.51;37.71
63399;BME280;49533;-34.520;150.798;2023-05-08T10:54:18;100786.50;;;15.93;37.74
63399;BME280;49533;-34.520;150.798;2023-05-08T10:56:49;100799.16;;;15.97;37.61
63399;BME280;49533;-34.520;150.798;2023-05-08T10:59:18;100828.44;;;16.05;37.74
63399;BME280;49533;-34.520;150.798;2023-05-08T11:01:47;100774.75;;;15.71;37.86
63399;BME280;49533;-34.520;150.798;2023-05-08T11:04:20;100825.25;;;16.03;37.81
63399;BME280;49533;-34.520;150.798;2023-05-08T11:06:48;100804.41;;;15.90;37.71
63399;BME280;49533;-34.520;150.798;2023-05-08T11:09:21;100818.03;;;15.99;37.86
63399;BME280;49533;-34.520;150.798;2023-05-08T11:11:58;100725.84;;;15.40;37.75
63399;BME280;49533;-34.520;150.798;2023-05-08T11:14:29;100768.28;;;15.67;37.69
63399;BME280;49533;-34.520;150.798;2023-05-08T11:17:03;100810.59;;;15.99;37.78
63399;BME280;49533;-34.520;150.798;2023-05-08T11:19:31;100763.84;;;15.62;37.98
63399;BME280;49533;-34.520;150.798;2023-05-08T11:22:13;100773.94;;;15.71;37.97
63399;BME280;49533;-34.520;150.798;2023-05-08T11:24:49;100809.69;;;15.95;38.09
63399;BME280;49533;-34.520;150.798;2023-05-08T11:27:29;100795.44;;;15.81;37.79
63399;BME280;49533;-34.520;150.798;2023-05-08T11:33:14;100817.75;;;15.92;38.15
63399;BME280;49533;-34.520;150.798;2023-05-08T11:35:45;100815.81;;;15.92;38.14
63399;BME280;49533;-34.520;150.798;2023-05-08T11:38:19;100769.53;;;15.57;38.19
63399;BME280;49533;-34.520;150.798;2023-05-08T11:41:01;100739.81;;;15.47;38.14
63399;BME280;49533;-34.520;150.798;2023-05-08T11:44:01;100816.97;;;15.91;37.97
63399;BME280;49533;-34.520;150.798;2023-05-08T11:46:41;100816.16;;;15.91;37.94
63399;BME280;49533;-34.520;150.798;2023-05-08T11:49:13;100771.00;;;15.55;38.12
63399;BME280;49533;-34.520;150.798;2023-05-08T11:51:46;100779.00;;;15.60;38.13
63399;BME280;49533;-34.520;150.798;2023-05-08T11:54:17;100816.91;;;15.79;38.04
63399;BME280;49533;-34.520;150.798;2023-05-08T11:56:46;100820.09;;;15.81;38.18
63399;BME280;49533;-34.520;150.798;2023-05-08T11:59:14;100802.47;;;15.70;38.15
63399;BME280;49533;-34.520;150.798;2023-05-08T12:01:42;100763.91;;;15.33;38.41
63399;BME280;49533;-34.520;150.798;2023-05-08T12:04:11;100826.59;;;15.76;38.72
63399;BME280;49533;-34.520;150.798;2023-05-08T12:06:39;100776.59;;;15.37;38.47
63399;BME280;49533;-34.520;150.798;2023-05-08T12:09:12;100825.66;;;15.72;38.39
63399;BME280;49533;-34.520;150.798;2023-05-08T12:11:41;100839.00;;;15.74;38.75
63399;BME280;49533;-34.520;150.798;2023-05-08T12:14:11;100837.41;;;15.73;38.34
63399;BME280;49533;-34.520;150.798;2023-05-08T12:16:40;100794.09;;;15.45;38.39
63399;BME280;49533;-34.520;150.798;2023-05-08T12:19:10;100827.94;;;15.70;38.41
63399;BME280;49533;-34.520;150.798;2023-05-08T12:21:38;100818.09;;;15.69;38.27
63399;BME280;49533;-34.520;150.798;2023-05-08T12:24:08;100812.63;;;15.69;38.51
63399;BME280;49533;-34.520;150.798;2023-05-08T12:26:37;100768.38;;;15.37;38.33
63399;BME280;49533;-34.520;150.798;2023-05-08T12:29:05;100773.25;;;15.32;38.61
63399;BME280;49533;-34.520;150.798;2023-05-08T12:31:34;100738.47;;;15.11;38.51
63399;BME280;49533;-34.520;150.798;2023-05-08T12:34:04;100793.28;;;15.44;38.77
63399;BME280;49533;-34.520;150.798;2023-05-08T12:36:34;100803.56;;;15.48;38.57
63399;BME280;49533;-34.520;150.798;2023-05-08T12:39:13;100820.41;;;15.58;38.71
63399;BME280;49533;-34.520;150.798;2023-05-08T12:41:48;100644.84;;;14.55;38.93
63399;BME280;49533;-34.520;150.798;2023-05-08T12:44:21;100719.88;;;14.96;38.59
63399;BME280;49533;-34.520;150.798;2023-05-08T12:46:50;100755.69;;;15.33;38.71
63399;BME280;49533;-34.520;150.798;2023-05-08T12:49:29;100796.44;;;15.55;38.64